Terminal Aerodrome Forecast
Issued by NWS

Home | Current Version | Previous Version | Text Only | Print | Product List | Glossary Off
Versions: 1 2 3 4 5 6 7 8 9 10 11 12 13 14 15 16 17 18 19 20

000
FTUS43 KICT 301300 AAA
TAFRSL
TAF AMD
KRSL 301344Z 3014/0112 18010KT P6SM VCSH OVC060
      TEMPO 3014/3016 -SHRA
     FM301700 19015G22KT P6SM BKN060
     FM302200 18015G22KT P6SM VCTS BKN080CB
     FM010400 18012KT P6SM BKN060=

USA.gov is the U.S. government's official web portal to all federal, state and local government web resources and services.